createdAt,value
2022-10-07T00:01:16.289Z,102417.00
2022-10-07T00:03:44.675Z,102441.00
2022-10-07T00:06:15.468Z,102441.00
2022-10-07T00:08:47.513Z,102441.00
2022-10-07T00:11:19.139Z,102411.00
2022-10-07T00:13:50.445Z,102401.00
2022-10-07T00:16:21.531Z,102434.00
2022-10-07T00:18:50.274Z,102416.00
2022-10-07T00:21:20.557Z,102423.00
2022-10-07T00:23:50.576Z,102417.00
2022-10-07T00:26:21.664Z,102430.00
2022-10-07T00:28:51.755Z,102389.00
2022-10-07T00:31:22.826Z,102423.00
2022-10-07T00:33:52.280Z,102401.00
2022-10-07T00:36:23.769Z,102418.00
2022-10-07T00:38:56.097Z,102410.00
2022-10-07T00:41:27.061Z,102391.00
2022-10-07T00:43:56.063Z,102413.00
2022-10-07T00:46:31.836Z,102401.00
2022-10-07T00:49:06.654Z,102403.00
2022-10-07T00:51:40.830Z,102385.00
2022-10-07T00:54:15.840Z,102367.00
2022-10-07T00:56:52.661Z,102394.00
2022-10-07T00:59:22.336Z,102390.00
2022-10-07T01:01:51.186Z,102389.00
2022-10-07T01:04:20.246Z,102370.00
2022-10-07T01:06:48.579Z,102382.00
2022-10-07T01:09:20.904Z,102371.00
2022-10-07T01:11:58.131Z,102357.00
2022-10-07T01:14:44.202Z,102342.00
2022-10-07T01:17:23.271Z,102349.00
2022-10-07T01:20:23.222Z,102340.00
2022-10-07T01:23:07.507Z,102337.00
2022-10-07T01:25:56.161Z,102354.00
2022-10-07T01:28:30.349Z,102329.00
2022-10-07T01:31:05.951Z,102320.00
2022-10-07T01:33:35.423Z,102345.00
2022-10-07T01:36:08.329Z,102325.00
2022-10-07T01:38:40.426Z,102312.00
2022-10-07T01:41:14.326Z,102329.00
2022-10-07T01:43:45.831Z,102296.00
2022-10-07T01:46:21.196Z,102297.00
2022-10-07T01:48:51.695Z,102324.00
2022-10-07T01:51:24.137Z,102296.00
2022-10-07T01:54:02.779Z,102280.00
2022-10-07T01:56:50.087Z,102280.00
2022-10-07T01:59:53.587Z,102285.00
2022-10-07T02:02:36.567Z,102241.00
2022-10-07T02:05:15.049Z,102270.00
2022-10-07T02:08:07.566Z,102286.00
2022-10-07T02:10:44.733Z,102231.00
2022-10-07T02:13:19.339Z,102283.00
2022-10-07T02:15:56.014Z,102256.00
2022-10-07T02:18:24.599Z,102247.00
2022-10-07T02:20:56.092Z,102241.00
2022-10-07T02:23:27.723Z,102242.00
2022-10-07T02:25:57.347Z,102253.00
2022-10-07T02:28:26.892Z,102245.00
2022-10-07T02:31:01.381Z,102272.00
2022-10-07T02:33:31.259Z,102272.00
2022-10-07T02:36:05.401Z,102222.00
2022-10-07T02:38:33.841Z,102234.00
2022-10-07T02:41:10.658Z,102233.00
2022-10-07T02:43:45.980Z,102205.00
2022-10-07T02:46:23.618Z,102248.00
2022-10-07T02:48:58.817Z,102237.00
2022-10-07T02:51:33.843Z,102224.00
2022-10-07T02:54:04.829Z,102212.00
2022-10-07T02:56:35.600Z,102226.00
2022-10-07T02:59:07.232Z,102205.00
2022-10-07T03:01:45.401Z,102213.00
2022-10-07T03:04:13.964Z,102229.00
2022-10-07T03:06:43.376Z,102228.00
2022-10-07T03:09:12.770Z,102171.00
2022-10-07T03:11:41.137Z,102179.00
2022-10-07T03:14:10.203Z,102219.00
2022-10-07T03:16:39.829Z,102225.00
2022-10-07T03:19:08.071Z,102220.00
2022-10-07T03:21:36.314Z,102169.00
2022-10-07T03:24:05.726Z,102213.00
2022-10-07T03:26:34.387Z,102198.00
2022-10-07T03:29:02.689Z,102167.00
2022-10-07T03:31:31.373Z,102208.00
2022-10-07T03:34:01.008Z,102194.00
2022-10-07T03:36:29.397Z,102212.00
2022-10-07T03:38:58.558Z,102200.00
2022-10-07T03:41:26.996Z,102170.00
2022-10-07T03:43:59.258Z,102201.00
2022-10-07T03:46:29.947Z,102195.00
2022-10-07T03:48:58.658Z,102193.00
2022-10-07T03:51:28.381Z,102170.00
2022-10-07T03:53:57.536Z,102168.00
2022-10-07T03:56:26.444Z,102188.00
2022-10-07T03:58:55.520Z,102173.00
2022-10-07T04:01:24.212Z,102179.00
2022-10-07T04:03:52.932Z,102176.00
2022-10-07T04:06:21.217Z,102183.00
2022-10-07T04:08:53.629Z,102152.00
2022-10-07T04:11:22.274Z,102162.00
2022-10-07T04:13:50.578Z,102159.00
2022-10-07T04:16:19.130Z,102160.00
2022-10-07T04:18:48.509Z,102137.00
2022-10-07T04:21:16.933Z,102171.00
2022-10-07T04:23:45.198Z,102171.00
2022-10-07T04:26:15.314Z,102163.00
2022-10-07T04:28:44.401Z,102166.00
2022-10-07T04:31:13.417Z,102151.00
2022-10-07T04:33:44.072Z,102160.00
2022-10-07T04:36:13.211Z,102153.00
2022-10-07T04:38:42.715Z,102110.00
2022-10-07T04:41:11.079Z,102163.00
2022-10-07T04:43:40.687Z,102127.00
2022-10-07T04:46:13.623Z,102168.00
2022-10-07T04:48:45.556Z,102159.00
2022-10-07T04:51:14.073Z,102158.00
2022-10-07T04:53:42.274Z,102153.00
2022-10-07T04:56:11.211Z,102147.00
2022-10-07T04:58:41.159Z,102145.00
2022-10-07T05:01:11.365Z,102143.00
2022-10-07T05:03:41.368Z,102137.00
2022-10-07T05:06:10.482Z,102135.00
2022-10-07T05:08:39.005Z,102141.00
2022-10-07T05:11:08.014Z,102132.00
2022-10-07T05:13:40.922Z,102150.00
2022-10-07T05:16:12.179Z,102148.00
2022-10-07T05:18:41.063Z,102139.00
2022-10-07T05:21:10.330Z,102139.00
2022-10-07T05:23:38.952Z,102135.00
2022-10-07T05:26:09.194Z,102140.00
2022-10-07T05:28:40.641Z,102137.00
2022-10-07T05:31:12.006Z,102122.00
2022-10-07T05:33:41.190Z,102139.00
2022-10-07T05:36:12.199Z,102131.00
2022-10-07T05:38:40.827Z,102143.00
2022-10-07T05:41:13.666Z,102137.00
2022-10-07T05:43:43.627Z,102110.00
2022-10-07T05:46:14.276Z,102133.00
2022-10-07T05:48:46.656Z,102130.00
2022-10-07T05:51:15.605Z,102125.00
2022-10-07T05:53:46.779Z,102112.00
2022-10-07T05:56:21.525Z,102128.00
2022-10-07T05:58:52.555Z,102121.00
2022-10-07T06:01:24.423Z,102121.00
2022-10-07T06:03:55.786Z,102053.00
2022-10-07T06:06:24.587Z,102115.00
2022-10-07T06:08:53.702Z,102108.00
2022-10-07T06:23:18.840Z,102135.00
2022-10-07T06:25:56.136Z,102127.00
2022-10-07T06:28:25.537Z,102138.00
2022-10-07T06:30:54.254Z,102121.00
2022-10-07T06:33:22.653Z,102135.00
2022-10-07T06:35:50.907Z,102136.00
2022-10-07T06:38:23.013Z,102121.00
2022-10-07T06:41:00.219Z,102098.00
2022-10-07T06:43:29.122Z,102136.00
2022-10-07T06:46:01.327Z,102133.00
2022-10-07T06:48:30.997Z,102111.00
2022-10-07T06:51:00.388Z,102130.00
2022-10-07T06:53:30.440Z,102133.00
2022-10-07T06:56:02.466Z,102138.00
2022-10-07T06:58:30.964Z,102135.00
2022-10-07T07:01:00.699Z,102138.00
2022-10-07T07:03:29.552Z,102106.00
2022-10-07T07:05:58.740Z,102138.00
2022-10-07T07:08:31.925Z,102112.00
2022-10-07T07:11:06.147Z,102141.00
2022-10-07T07:13:35.958Z,102147.00
2022-10-07T07:16:04.146Z,102138.00
2022-10-07T07:18:32.392Z,102142.00
2022-10-07T07:21:04.884Z,102132.00
2022-10-07T07:23:34.469Z,102132.00
2022-10-07T07:26:02.664Z,102131.00
2022-10-07T07:28:31.351Z,102126.00
2022-10-07T07:30:59.667Z,102126.00
2022-10-07T07:33:28.514Z,102119.00
2022-10-07T07:35:56.859Z,102120.00
2022-10-07T07:38:25.644Z,102126.00
2022-10-07T07:40:55.456Z,102113.00
2022-10-07T07:43:23.910Z,102116.00
2022-10-07T07:45:52.471Z,102093.00
2022-10-07T07:48:20.647Z,102095.00
2022-10-07T07:50:48.915Z,102112.00
2022-10-07T07:53:17.124Z,102089.00
2022-10-07T07:55:55.651Z,102127.00
2022-10-07T07:58:24.301Z,102112.00
2022-10-07T08:01:03.218Z,102108.00
2022-10-07T08:03:31.890Z,102098.00
2022-10-07T08:06:02.999Z,102110.00
2022-10-07T08:08:31.883Z,102107.00
2022-10-07T08:11:08.916Z,102110.00
2022-10-07T08:13:39.565Z,102098.00
2022-10-07T08:16:08.661Z,102094.00
2022-10-07T08:18:39.022Z,102109.00
2022-10-07T08:21:08.619Z,102078.00
2022-10-07T08:23:37.422Z,102107.00
2022-10-07T08:26:08.611Z,102101.00
2022-10-07T08:28:39.277Z,102085.00
2022-10-07T08:31:10.320Z,102093.00
2022-10-07T08:33:41.275Z,102099.00
2022-10-07T08:36:13.483Z,102092.00
2022-10-07T08:38:43.388Z,102091.00
2022-10-07T08:41:32.887Z,102082.00
2022-10-07T08:44:13.192Z,102083.00
2022-10-07T08:46:53.778Z,102077.00
2022-10-07T08:49:32.131Z,102074.00
2022-10-07T08:52:06.184Z,102069.00
2022-10-07T08:54:35.413Z,102085.00
2022-10-07T08:57:23.045Z,102079.00
2022-10-07T08:59:57.481Z,102058.00
2022-10-07T09:02:39.181Z,102078.00
2022-10-07T09:05:21.646Z,102058.00
2022-10-07T09:07:53.627Z,102070.00
2022-10-07T09:10:35.789Z,102067.00
2022-10-07T09:13:11.900Z,102068.00
2022-10-07T09:15:46.591Z,102063.00
2022-10-07T09:18:21.415Z,102043.00
2022-10-07T09:20:54.006Z,102059.00
2022-10-07T09:23:26.194Z,102064.00
2022-10-07T09:25:54.404Z,102058.00
2022-10-07T09:28:29.545Z,102060.00
2022-10-07T09:30:58.311Z,102060.00
2022-10-07T09:33:30.050Z,102050.00
2022-10-07T09:36:07.228Z,102044.00
2022-10-07T09:38:39.078Z,102044.00
2022-10-07T09:41:19.656Z,102049.00
2022-10-07T09:44:03.878Z,102047.00
2022-10-07T09:46:48.891Z,102038.00
2022-10-07T09:49:42.149Z,102026.00
2022-10-07T09:52:19.852Z,102027.00
2022-10-07T09:54:50.610Z,102017.00
2022-10-07T09:57:33.996Z,102015.00
2022-10-07T10:00:28.279Z,102022.00
2022-10-07T10:03:05.947Z,102013.00
2022-10-07T10:05:37.673Z,102008.00
2022-10-07T10:08:19.380Z,102003.00
2022-10-07T10:10:53.919Z,102007.00
2022-10-07T10:13:34.199Z,102000.00
2022-10-07T10:16:07.214Z,102003.00
2022-10-07T10:18:39.335Z,101992.00
2022-10-07T10:21:30.334Z,101991.00
2022-10-07T10:24:00.648Z,101997.00
2022-10-07T10:26:56.117Z,101994.00
2022-10-07T10:29:41.314Z,101980.00
2022-10-07T10:32:38.236Z,101979.00
2022-10-07T10:35:15.536Z,101979.00
2022-10-07T10:38:15.761Z,101978.00
2022-10-07T10:40:53.032Z,101970.00
2022-10-07T10:43:30.722Z,101963.00
2022-10-07T10:46:24.242Z,101961.00
2022-10-07T10:49:00.055Z,101943.00
2022-10-07T10:51:50.385Z,101946.00
2022-10-07T10:54:31.599Z,101960.00
2022-10-07T10:57:06.655Z,101954.00
2022-10-07T10:59:59.397Z,101947.00
2022-10-07T11:02:46.015Z,101946.00
2022-10-07T11:05:23.064Z,101943.00
2022-10-07T11:07:55.881Z,101933.00
2022-10-07T11:10:27.945Z,101916.00
2022-10-07T11:13:00.371Z,101928.00
2022-10-07T11:15:34.550Z,101923.00
2022-10-07T11:18:08.751Z,101923.00
2022-10-07T11:20:44.806Z,101919.00
2022-10-07T11:23:22.549Z,101912.00
2022-10-07T11:25:57.303Z,101900.00
2022-10-07T11:28:29.498Z,101897.00
2022-10-07T11:31:05.744Z,101890.00
2022-10-07T11:33:46.493Z,101887.00
2022-10-07T11:36:23.886Z,101886.00
2022-10-07T11:38:54.395Z,101880.00
2022-10-07T11:41:29.268Z,101880.00
2022-10-07T11:44:03.541Z,101879.00
2022-10-07T11:46:36.205Z,101876.00
2022-10-07T11:49:08.597Z,101869.00
2022-10-07T11:51:42.731Z,101864.00
2022-10-07T11:54:17.366Z,101851.00
2022-10-07T11:56:49.783Z,101861.00
2022-10-07T11:59:34.447Z,101845.00
2022-10-07T12:02:05.044Z,101844.00
2022-10-07T12:04:42.256Z,101852.00
2022-10-07T12:07:46.250Z,101839.00
2022-10-07T12:10:35.852Z,101831.00
2022-10-07T12:13:38.609Z,101827.00
2022-10-07T12:16:56.098Z,101822.00
2022-10-07T12:19:24.350Z,101823.00
2022-10-07T12:22:20.623Z,101811.00
2022-10-07T12:25:32.291Z,101804.00
2022-10-07T12:28:01.790Z,101796.00
2022-10-07T12:30:42.541Z,101802.00
2022-10-07T12:33:24.984Z,101800.00
2022-10-07T12:35:54.766Z,101800.00
2022-10-07T12:38:41.334Z,101794.00
2022-10-07T12:41:25.918Z,101780.00
2022-10-07T12:44:04.823Z,101785.00
2022-10-07T12:46:39.497Z,101778.00
2022-10-07T12:49:17.188Z,101776.00
2022-10-07T12:51:46.707Z,101772.00
2022-10-07T12:54:21.165Z,101769.00
2022-10-07T12:56:51.364Z,101753.00
2022-10-07T12:59:51.177Z,101760.00
2022-10-07T13:03:12.820Z,101742.00
2022-10-07T13:06:32.939Z,101749.00
2022-10-07T13:09:55.526Z,101737.00
2022-10-07T13:12:39.479Z,101747.00
2022-10-07T13:15:27.391Z,101738.00
2022-10-07T13:18:09.901Z,101731.00
2022-10-07T13:20:49.149Z,101725.00
2022-10-07T13:23:26.055Z,101736.00
2022-10-07T13:25:58.859Z,101736.00
2022-10-07T13:28:39.602Z,101723.00
2022-10-07T13:31:21.320Z,101733.00
2022-10-07T13:33:50.780Z,101726.00
2022-10-07T13:36:23.624Z,101707.00
2022-10-07T13:38:53.806Z,101707.00
2022-10-07T13:41:28.389Z,101695.00
2022-10-07T13:44:01.091Z,101700.00
2022-10-07T13:46:33.171Z,101698.00
2022-10-07T13:49:02.396Z,101702.00
2022-10-07T13:51:38.050Z,101682.00
2022-10-07T13:54:18.895Z,101688.00
2022-10-07T13:56:50.102Z,101687.00
2022-10-07T13:59:22.039Z,101691.00
2022-10-07T14:01:53.398Z,101675.00
2022-10-07T14:04:27.366Z,101682.00
2022-10-07T14:07:00.386Z,101681.00
2022-10-07T14:09:46.919Z,101682.00
2022-10-07T14:12:20.935Z,101674.00
2022-10-07T14:14:53.688Z,101672.00
2022-10-07T14:17:34.182Z,101668.00
2022-10-07T14:20:06.813Z,101671.00
2022-10-07T14:22:39.350Z,101667.00
2022-10-07T14:25:18.606Z,101658.00
2022-10-07T14:28:19.635Z,101652.00
2022-10-07T14:31:36.915Z,101638.00
2022-10-07T14:34:33.037Z,101652.00
2022-10-07T14:37:08.113Z,101650.00
2022-10-07T14:39:38.941Z,101651.00
2022-10-07T14:42:15.679Z,101639.00
2022-10-07T14:44:44.915Z,101632.00
2022-10-07T14:47:17.685Z,101630.00
2022-10-07T14:49:46.175Z,101632.00
2022-10-07T14:52:21.090Z,101632.00
2022-10-07T14:54:50.668Z,101623.00
2022-10-07T14:57:19.291Z,101619.00
2022-10-07T15:00:05.371Z,101616.00
2022-10-07T15:02:35.126Z,101622.00
2022-10-07T15:05:04.755Z,101564.00
2022-10-07T15:07:33.104Z,101612.00
2022-10-07T15:10:01.342Z,101615.00
2022-10-07T15:12:29.933Z,101607.00
2022-10-07T15:14:58.353Z,101613.00
2022-10-07T15:17:26.715Z,101609.00
2022-10-07T15:19:57.744Z,101605.00
2022-10-07T15:22:26.926Z,101609.00
2022-10-07T15:24:55.417Z,101602.00
2022-10-07T15:27:23.751Z,101593.00
2022-10-07T15:29:54.058Z,101597.00
2022-10-07T15:32:23.106Z,101600.00
2022-10-07T15:34:53.790Z,101598.00
2022-10-07T15:37:24.112Z,101595.00
2022-10-07T15:39:52.670Z,101594.00
2022-10-07T15:42:22.488Z,101588.00
2022-10-07T15:44:52.091Z,101585.00
2022-10-07T15:47:20.930Z,101583.00
2022-10-07T15:49:49.677Z,101598.00
2022-10-07T15:52:18.497Z,101594.00
2022-10-07T15:54:48.072Z,101591.00
2022-10-07T15:57:16.391Z,101586.00
2022-10-07T15:59:44.758Z,101592.00
2022-10-07T16:02:16.850Z,101583.00
2022-10-07T16:04:47.350Z,101560.00
2022-10-07T16:07:15.896Z,101574.00
2022-10-07T16:09:44.257Z,101580.00
2022-10-07T16:12:14.264Z,101566.00
2022-10-07T16:14:42.538Z,101559.00
2022-10-07T16:17:10.772Z,101532.00
2022-10-07T16:19:39.246Z,101556.00
2022-10-07T16:22:09.663Z,101555.00
2022-10-07T16:24:39.827Z,101560.00
2022-10-07T16:27:08.146Z,101560.00
2022-10-07T16:29:55.289Z,101549.00
2022-10-07T16:32:23.559Z,101557.00
2022-10-07T16:34:52.646Z,101529.00
2022-10-07T16:37:21.019Z,101532.00
2022-10-07T16:39:49.196Z,101541.00
2022-10-07T16:42:17.447Z,101537.00
2022-10-07T16:44:50.615Z,101518.00
2022-10-07T16:47:19.143Z,101535.00
2022-10-07T16:49:47.401Z,101533.00
2022-10-07T16:52:15.777Z,101530.00
2022-10-07T16:54:43.960Z,101532.00
2022-10-07T16:57:12.089Z,101530.00
2022-10-07T16:59:40.262Z,101527.00
2022-10-07T17:02:12.109Z,101524.00
2022-10-07T17:04:40.280Z,101532.00
2022-10-07T17:07:08.412Z,101530.00
2022-10-07T17:09:36.539Z,101534.00
2022-10-07T17:12:06.907Z,101532.00
2022-10-07T17:14:35.187Z,101519.00
2022-10-07T17:17:04.016Z,101524.00
2022-10-07T17:19:34.762Z,101513.00
2022-10-07T17:22:03.965Z,101511.00
2022-10-07T17:24:32.195Z,101498.00
2022-10-07T17:27:00.403Z,101505.00
2022-10-07T17:29:30.779Z,101505.00
2022-10-07T17:31:59.273Z,101508.00
2022-10-07T17:34:27.548Z,101517.00
2022-10-07T17:36:58.956Z,101510.00
2022-10-07T17:39:27.280Z,101510.00
2022-10-07T17:41:55.507Z,101504.00
2022-10-07T17:44:23.661Z,101509.00
2022-10-07T17:46:51.839Z,101504.00
2022-10-07T17:49:20.666Z,101501.00
2022-10-07T17:51:48.809Z,101511.00
2022-10-07T17:54:21.027Z,101504.00
2022-10-07T17:56:49.277Z,101499.00
2022-10-07T17:59:17.874Z,101500.00
2022-10-07T18:01:46.106Z,101503.00
2022-10-07T18:04:22.438Z,101500.00
2022-10-07T18:06:53.073Z,101498.00
2022-10-07T18:09:24.157Z,101501.00
2022-10-07T18:12:10.090Z,101494.00
2022-10-07T18:14:55.965Z,101504.00
2022-10-07T18:17:25.223Z,101505.00
2022-10-07T18:19:53.476Z,101508.00
2022-10-07T18:22:21.890Z,101497.00
2022-10-07T18:24:52.262Z,101501.00
2022-10-07T18:27:26.825Z,101498.00
2022-10-07T18:29:55.582Z,101494.00
2022-10-07T18:32:24.620Z,101498.00
2022-10-07T18:34:52.825Z,101501.00
2022-10-07T18:37:21.098Z,101498.00
2022-10-07T18:39:50.783Z,101501.00
2022-10-07T18:42:19.223Z,101492.00
2022-10-07T18:44:47.934Z,101491.00
2022-10-07T18:47:16.230Z,101491.00
2022-10-07T18:49:47.102Z,101486.00
2022-10-07T18:52:15.619Z,101498.00
2022-10-07T18:54:43.907Z,101490.00
2022-10-07T18:57:13.565Z,101481.00
2022-10-07T18:59:44.773Z,101482.00
2022-10-07T19:02:13.142Z,101486.00
2022-10-07T19:04:41.722Z,101481.00
2022-10-07T19:07:09.927Z,101483.00
2022-10-07T19:09:38.349Z,101479.00
2022-10-07T19:12:31.914Z,101475.00
2022-10-07T19:15:00.647Z,101464.00
2022-10-07T19:17:29.130Z,101469.00
2022-10-07T19:20:01.551Z,101467.00
2022-10-07T19:22:30.100Z,101466.00
2022-10-07T19:25:15.877Z,101463.00
2022-10-07T19:27:44.374Z,101472.00
2022-10-07T19:30:14.335Z,101471.00
2022-10-07T19:32:43.105Z,101459.00
2022-10-07T19:35:11.447Z,101462.00
2022-10-07T19:37:39.868Z,101432.00
2022-10-07T19:40:09.506Z,101464.00
2022-10-07T19:42:37.838Z,101459.00
2022-10-07T19:45:09.333Z,101448.00
2022-10-07T19:47:41.715Z,101448.00
2022-10-07T19:50:10.238Z,101445.00
2022-10-07T19:52:38.405Z,101436.00
2022-10-07T19:55:08.182Z,101438.00
2022-10-07T19:57:37.337Z,101436.00
2022-10-07T20:00:06.914Z,101434.00
2022-10-07T20:02:35.172Z,101426.00
2022-10-07T20:05:07.106Z,101438.00
2022-10-07T20:07:36.237Z,101429.00
2022-10-07T20:10:05.962Z,101429.00
2022-10-07T20:12:34.402Z,101427.00
2022-10-07T20:15:02.543Z,101422.00
2022-10-07T20:17:30.900Z,101429.00
2022-10-07T20:19:59.132Z,101422.00
2022-10-07T20:22:29.027Z,101421.00
2022-10-07T20:24:57.408Z,101365.00
2022-10-07T20:27:25.730Z,101377.00
2022-10-07T20:30:02.164Z,101416.00
2022-10-07T20:32:35.588Z,101416.00
2022-10-07T20:35:08.019Z,101411.00
2022-10-07T20:37:37.560Z,101416.00
2022-10-07T20:40:24.254Z,101409.00
2022-10-07T20:42:53.646Z,101405.00
2022-10-07T20:45:21.981Z,101398.00
2022-10-07T20:47:50.427Z,101403.00
2022-10-07T20:50:18.974Z,101404.00
2022-10-07T20:52:48.792Z,101394.00
2022-10-07T20:55:17.638Z,101393.00
2022-10-07T20:57:47.052Z,101397.00
2022-10-07T21:00:16.921Z,101390.00
2022-10-07T21:02:45.607Z,101386.00
2022-10-07T21:05:14.317Z,101363.00
2022-10-07T21:07:42.876Z,101386.00
2022-10-07T21:10:12.425Z,101379.00
2022-10-07T21:12:41.068Z,101385.00
2022-10-07T21:15:10.212Z,101378.00
2022-10-07T21:17:39.132Z,101376.00
2022-10-07T21:20:08.170Z,101370.00
2022-10-07T21:22:36.327Z,101363.00
2022-10-07T21:25:05.573Z,101359.00
2022-10-07T21:27:35.192Z,101364.00
2022-10-07T21:30:03.540Z,101348.00
2022-10-07T21:32:31.723Z,101330.00
2022-10-07T21:34:59.936Z,101337.00
2022-10-07T21:37:30.124Z,101320.00
2022-10-07T21:39:59.598Z,101328.00
2022-10-07T21:42:28.716Z,101323.00
2022-10-07T21:44:58.387Z,101321.00
2022-10-07T21:47:26.831Z,101320.00
2022-10-07T21:49:56.881Z,101329.00
2022-10-07T21:52:25.036Z,101329.00
2022-10-07T21:54:53.205Z,101311.00
2022-10-07T21:57:21.733Z,101330.00
2022-10-07T21:59:51.736Z,101327.00
2022-10-07T22:02:21.676Z,101325.00
2022-10-07T22:04:49.915Z,101323.00
2022-10-07T22:07:35.581Z,101326.00
2022-10-07T22:10:03.791Z,101306.00
2022-10-07T22:12:31.959Z,101325.00
2022-10-07T22:15:00.638Z,101324.00
2022-10-07T22:17:30.167Z,101320.00
2022-10-07T22:19:58.797Z,101312.00
2022-10-07T22:22:26.940Z,101311.00
2022-10-07T22:24:55.189Z,101308.00
2022-10-07T22:27:24.873Z,101304.00
2022-10-07T22:29:53.013Z,101302.00
2022-10-07T22:32:21.240Z,101299.00
2022-10-07T22:35:08.280Z,101302.00
2022-10-07T22:37:36.472Z,101291.00
2022-10-07T22:40:05.421Z,101288.00
2022-10-07T22:42:35.395Z,101297.00
2022-10-07T22:45:03.538Z,101295.00
2022-10-07T22:47:31.693Z,101300.00
2022-10-07T22:50:02.668Z,101252.00
2022-10-07T22:52:31.160Z,101286.00
2022-10-07T22:54:59.419Z,101288.00
2022-10-07T22:57:28.754Z,101289.00
2022-10-07T22:59:56.950Z,101286.00
2022-10-07T23:02:25.198Z,101281.00
2022-10-07T23:04:53.370Z,101277.00
2022-10-07T23:07:23.836Z,101275.00
2022-10-07T23:09:52.016Z,101281.00
2022-10-07T23:12:20.153Z,101285.00
2022-10-07T23:14:48.390Z,101285.00
2022-10-07T23:17:16.836Z,101290.00
2022-10-07T23:19:45.043Z,101294.00
2022-10-07T23:22:13.224Z,101290.00
2022-10-07T23:24:42.765Z,101285.00
2022-10-07T23:27:11.273Z,101281.00
2022-10-07T23:29:39.871Z,101259.00
2022-10-07T23:32:08.099Z,101285.00
2022-10-07T23:34:36.316Z,101274.00
2022-10-07T23:37:05.206Z,101283.00
2022-10-07T23:39:34.500Z,101280.00
2022-10-07T23:42:04.144Z,101280.00
2022-10-07T23:44:32.284Z,101272.00
2022-10-07T23:47:00.432Z,101284.00
2022-10-07T23:49:28.687Z,101291.00
2022-10-07T23:51:57.636Z,101290.00
2022-10-07T23:54:25.999Z,101306.00
2022-10-07T23:56:54.258Z,101306.00
2022-10-07T23:59:25.097Z,101306.00
